Aérodrome :
LOGIN :

S'inscrire | Disclaimer

   EN    FR    IT 

 










Légende :    VFR   VFR Marginal   IFR   IFR Intensif   IFR Très Intensif
Visi : 
Plafond : 
>= 8 km
>= 3000ft
5 à 8 km
1000 à 3000 ft
1500m à 5 km
500 à 1000 ft
800 à 1500m
200 à 500 ft
< 800m
< 200 ft
Symboles :   Orages  Brouillard  Fortes neiges  Fortes précipitations  Vent > 20 kt
SIGMETs :   Divers  Orages  Givrage  Turbulence  Onde Orograph.  Cendres Volcan.






- Altitude de l'aérodrome : 121 ft
- Code IATA : HUY


EGNJ - Humberside

DERNIER METAR :
  • 140020Z AUTO 24005KT 9999 OVC049/// 15/13 Q1017

METARs EXPIRÉS :
  • 132350Z AUTO 23004KT 9999 NCD 15/13 Q1017
  • 132320Z AUTO 22005KT 9999 OVC049/// 15/13 Q1017
  • 132250Z AUTO 26003KT 9999 NCD 15/12 Q1017
  • 132220Z AUTO 25004KT 9999 NCD 16/13 Q1017
  • 132150Z AUTO VRB03KT 9999 NCD 16/13 Q1017

TAF TAF EGNJ
Valide du 13 à 21h jusqu'au 14 à 06h UTC


132000Z 1321/1406 25006KT 9999 SCT030
PROB30
TEMPO 1321/1406 6000 -SHRA BKN014
ATIS : +44 1652 682 020



MET'MAP, la Météo Aéronautique d'un coup d'oeil ! - Copyright ORBIFLY Décembre 2007 - Disclaimer

ORBIFLY MET'MAP TEAM :

Programmation & Développement : Alexandra Zaïnal
Sur une idée originale de : Baudouin d'Aumeries
Assistance à la programmation : Marc-Olivier Méhu
Soutien technique & logistique : Manuel Goepfert

Contact : metmap@orbifly.com




SOURCES & CREDITS :

   NOAA